Time;durP1;ratioP1;P1;durP2;ratioP2;P2;SDS_P1;SDS_P2;PMS_P1;PMS_P2;Temp;Humidity;BMP_temperature;BMP_pressure;BME280_temperature;BME280_humidity;BME280_pressure;Samples;Min_cycle;Max_cycle;Signal;HPM_P1;HPM_P2
2022/04/11 00:00:13;;;;;;;2.47;1.55;;;;;;;8.68;100.00;99683.69;6194786;23;20028;-61
2022/04/11 00:02:59;;;;;;;2.83;1.38;;;;;;;8.78;100.00;99687.91;6143193;23;20028;-61
2022/04/11 00:05:43;;;;;;;3.25;1.45;;;;;;;8.87;100.00;99687.78;6182707;23;20104;-63
2022/04/11 00:08:28;;;;;;;2.15;1.20;;;;;;;8.90;100.00;99685.09;6157987;23;20028;-62
2022/04/11 00:11:12;;;;;;;3.75;1.27;;;;;;;8.96;100.00;99684.13;6178671;23;20027;-62
2022/04/11 00:13:56;;;;;;;2.65;1.10;;;;;;;8.95;100.00;99685.03;6190895;23;20092;-75
2022/04/11 00:16:41;;;;;;;2.67;1.20;;;;;;;8.96;100.00;99687.66;6189496;23;20028;-62
2022/04/11 00:19:26;;;;;;;2.08;1.20;;;;;;;8.95;100.00;99688.53;6188724;23;20072;-63
2022/04/11 00:22:10;;;;;;;2.65;1.30;;;;;;;8.94;100.00;99681.50;6181100;23;20087;-62
2022/04/11 00:24:54;;;;;;;3.70;1.20;;;;;;;8.83;100.00;99669.38;6187731;23;20544;-63
2022/04/11 00:27:39;;;;;;;1.17;0.90;;;;;;;8.83;100.00;99664.94;6191096;23;20042;-61
2022/04/11 00:30:23;;;;;;;1.95;1.23;;;;;;;8.91;100.00;99685.97;6190916;23;20255;-62
2022/04/11 00:33:08;;;;;;;3.78;1.23;;;;;;;8.95;100.00;99687.69;6181032;23;20031;-61
2022/04/11 00:35:52;;;;;;;1.90;1.17;;;;;;;8.99;100.00;99686.75;6189776;23;20028;-61
2022/04/11 00:38:37;;;;;;;1.63;1.20;;;;;;;8.87;100.00;99695.72;6188271;23;20079;-76
2022/04/11 00:41:22;;;;;;;2.75;1.20;;;;;;;8.69;100.00;99672.19;6200671;23;20147;-62
2022/04/11 00:44:07;;;;;;;2.80;1.50;;;;;;;8.87;100.00;99695.72;6188654;23;20093;-61
2022/04/11 00:46:51;;;;;;;1.83;1.25;;;;;;;8.93;100.00;99698.28;6191114;23;20044;-61
2022/04/11 00:49:36;;;;;;;3.75;1.30;;;;;;;8.96;100.00;99700.88;6189945;23;20082;-62
2022/04/11 00:52:21;;;;;;;1.77;1.40;;;;;;;8.97;100.00;99694.69;6180775;23;20477;-62
2022/04/11 00:55:09;;;;;;;2.35;1.27;;;;;;;8.86;100.00;99667.53;6179638;23;20032;-61
2022/04/11 00:57:54;;;;;;;3.97;1.45;;;;;;;9.05;100.00;99687.53;6177293;23;20031;-76
2022/04/11 01:00:40;;;;;;;3.28;1.63;;;;;;;9.02;100.00;99687.56;6179369;23;20028;-63
2022/04/11 01:03:25;;;;;;;2.78;1.58;;;;;;;8.89;100.00;99656.03;6178423;23;20071;-61
2022/04/11 01:06:09;;;;;;;1.85;1.30;;;;;;;8.76;100.00;99643.91;6158500;23;20079;-62
2022/04/11 01:08:54;;;;;;;3.35;1.60;;;;;;;9.05;100.00;99684.00;6189405;23;20199;-62
2022/04/11 01:11:39;;;;;;;2.42;1.40;;;;;;;9.02;100.00;99692.84;6189350;23;20433;-62
2022/04/11 01:14:24;;;;;;;3.75;1.60;;;;;;;8.82;100.00;99664.94;6168419;23;20028;-61
2022/04/11 01:17:10;;;;;;;2.53;1.80;;;;;;;8.91;100.00;99667.47;6187466;23;20083;-72
2022/04/11 01:19:54;;;;;;;2.90;1.52;;;;;;;8.81;100.00;99650.88;6180400;23;20083;-61
2022/04/11 01:22:40;;;;;;;2.95;1.40;;;;;;;8.90;100.00;99677.16;6188300;23;20467;-61
2022/04/11 01:25:25;;;;;;;4.95;1.65;;;;;;;8.65;100.00;99640.53;6137675;23;20036;-61
2022/04/11 01:28:09;;;;;;;2.72;1.50;;;;;;;8.80;100.00;99666.75;6190358;23;20075;-62
2022/04/11 01:30:56;;;;;;;2.47;1.55;;;;;;;8.67;100.00;99670.47;6179258;23;20036;-61
2022/04/11 01:33:40;;;;;;;3.22;1.60;;;;;;;8.54;100.00;99643.34;6210592;23;20367;-61
2022/04/11 01:36:25;;;;;;;4.82;1.42;;;;;;;8.61;100.00;99646.75;6177453;23;20032;-74
2022/04/11 01:39:10;;;;;;;1.63;1.27;;;;;;;8.80;100.00;99674.69;6178840;23;20085;-64
2022/04/11 01:41:55;;;;;;;4.05;1.85;;;;;;;8.65;100.00;99637.88;6155199;23;20044;-62
2022/04/11 01:44:39;;;;;;;2.22;1.60;;;;;;;8.77;100.00;99664.16;6158126;23;20056;-61
2022/04/11 01:47:24;;;;;;;2.83;1.53;;;;;;;8.65;100.00;99657.28;6189949;23;20794;-61
2022/04/11 01:50:10;;;;;;;2.05;1.45;;;;;;;8.76;100.00;99671.22;6181737;23;20364;-61
2022/04/11 01:52:55;;;;;;;3.95;1.52;;;;;;;8.59;100.00;99675.00;6141153;23;20408;-60
2022/04/11 01:55:39;;;;;;;2.53;1.55;;;;;;;8.65;100.00;99673.13;6194544;23;20028;-60
2022/04/11 01:58:25;;;;;;;2.08;1.40;;;;;;;8.67;100.00;99673.13;6161041;23;20077;-61
2022/04/11 02:01:09;;;;;;;2.67;1.37;;;;;;;8.65;100.00;99677.53;6164743;23;20114;-61
2022/04/11 02:03:54;;;;;;;1.70;1.10;;;;;;;8.68;100.00;99681.03;6159241;23;20255;-63
2022/04/11 02:06:39;;;;;;;2.33;0.90;;;;;;;8.35;100.00;99639.19;6186051;23;20817;-63
2022/04/11 02:09:24;;;;;;;2.55;1.20;;;;;;;8.51;100.00;99675.06;6186070;23;20048;-62
2022/04/11 02:12:08;;;;;;;1.50;1.10;;;;;;;8.34;100.00;99637.44;6187027;23;20091;-65
2022/04/11 02:14:55;;;;;;;2.95;1.30;;;;;;;8.56;100.00;99675.91;6153852;23;20482;-73
2022/04/11 02:17:40;;;;;;;3.58;1.60;;;;;;;8.46;100.00;99654.91;6165105;23;20108;-62
2022/04/11 02:20:24;;;;;;;3.47;1.60;;;;;;;8.63;100.00;99684.63;6185123;23;20024;-61
2022/04/11 02:23:09;;;;;;;2.25;1.58;;;;;;;8.60;100.00;99679.38;6188475;23;20072;-60
2022/04/11 02:25:54;;;;;;;3.50;1.80;;;;;;;8.57;100.00;99676.75;6178542;23;20052;-61
2022/04/11 02:28:39;;;;;;;3.45;1.98;;;;;;;8.58;100.00;99689.97;6188622;23;20360;-61
2022/04/11 02:31:23;;;;;;;3.97;1.88;;;;;;;8.49;100.00;99690.09;6188634;23;20079;-60
2022/04/11 02:34:07;;;;;;;4.70;2.10;;;;;;;8.54;100.00;99682.97;6177774;23;20642;-70
2022/04/11 02:36:52;;;;;;;2.70;2.10;;;;;;;8.43;100.00;99662.88;6188644;23;20032;-61
2022/04/11 02:39:36;;;;;;;6.15;2.40;;;;;;;8.52;100.00;99684.78;6176514;23;20091;-61
2022/04/11 02:42:26;;;;;;;5.20;3.20;;;;;;;8.57;100.00;99685.59;6179932;23;20043;-65
2022/04/11 02:45:17;;;;;;;;;;;;;;;8.58;100.00;99681.16;6158234;23;20076;-62
2022/04/11 02:48:03;;;;;;;6.78;3.10;;;;;;;8.45;100.00;99680.47;6166618;23;19918;-66
2022/04/11 02:50:52;;;;;;;5.07;3.25;;;;;;;8.50;100.00;99681.25;6137252;23;20036;-63
2022/04/11 02:53:41;;;;;;;5.47;2.95;;;;;;;8.42;100.00;99666.41;6169192;23;20032;-62
2022/04/11 02:56:26;;;;;;;5.45;3.80;;;;;;;8.42;100.00;99675.22;6190560;23;20081;-60
2022/04/11 02:59:11;;;;;;;4.72;3.15;;;;;;;8.50;100.00;99681.25;6190518;23;20477;-61
2022/04/11 03:02:00;;;;;;;4.63;3.65;;;;;;;8.53;100.00;99673.31;6158053;23;20028;-72
2022/04/11 03:04:45;;;;;;;5.75;3.85;;;;;;;8.62;100.00;99677.56;6169871;23;20421;-61
2022/04/11 03:07:37;;;;;;;6.68;3.28;;;;;;;8.60;100.00;99674.09;6160597;23;20282;-63
2022/04/11 03:10:22;;;;;;;3.75;2.40;;;;;;;8.42;100.00;99650.53;6190477;23;20522;-61
2022/04/11 03:13:11;;;;;;;4.78;2.45;;;;;;;8.50;100.00;99683.03;6190467;23;20108;-63
2022/04/11 03:15:55;;;;;;;4.82;2.42;;;;;;;8.58;100.00;99682.03;6188085;23;20036;-72
2022/04/11 03:18:40;;;;;;;4.93;2.38;;;;;;;8.20;100.00;99612.09;6191794;23;20119;-62
2022/04/11 03:21:25;;;;;;;4.45;2.90;;;;;;;8.59;100.00;99675.84;6188160;23;20613;-61
2022/04/11 03:24:19;;;;;;;3.25;2.25;;;;;;;8.62;100.00;99672.28;6189799;23;20028;-61
2022/04/11 03:27:05;;;;;;;3.42;2.80;;;;;;;8.69;100.00;99676.59;6169871;23;20067;-61
2022/04/11 03:29:52;;;;;;;4.97;2.35;;;;;;;8.74;100.00;99675.66;6180074;23;20474;-62
2022/04/11 03:32:38;;;;;;;3.95;2.88;;;;;;;8.78;100.00;99669.41;6173835;23;20053;-61
2022/04/11 03:35:24;;;;;;;4.25;2.70;;;;;;;8.79;100.00;99671.16;6196065;23;20363;-63
2022/04/11 03:38:09;;;;;;;;;;;;;;;8.86;100.00;99678.09;6196220;23;20031;-62
2022/04/11 03:40:54;;;;;;;5.70;2.70;;;;;;;8.80;100.00;99680.84;6195176;23;19923;-65
2022/04/11 03:43:38;;;;;;;4.18;2.40;;;;;;;8.80;100.00;99674.69;6163305;23;20031;-63
2022/04/11 03:46:23;;;;;;;4.30;2.78;;;;;;;8.67;100.00;99638.75;6193816;23;20032;-64
2022/04/11 03:49:08;;;;;;;5.70;2.80;;;;;;;8.75;100.00;99655.38;6183979;23;20123;-62
2022/04/11 03:51:53;;;;;;;4.95;2.95;;;;;;;8.74;100.00;99665.06;6194265;23;20471;-63
2022/04/11 03:54:37;;;;;;;5.72;2.80;;;;;;;8.78;100.00;99664.13;6195446;23;20070;-64
2022/04/11 03:57:22;;;;;;;5.72;3.03;;;;;;;8.76;100.00;99655.38;6173387;23;20028;-61
2022/04/11 04:00:11;;;;;;;6.20;3.13;;;;;;;8.78;100.00;99652.66;6184303;23;20076;-63
2022/04/11 04:03:22;;;;;;;4.72;2.75;;;;;;;8.71;100.00;99638.66;6163376;23;20120;-61
2022/04/11 04:06:13;;;;;;;6.72;3.30;;;;;;;8.78;100.00;99635.06;6184026;23;20051;-63
2022/04/11 04:09:01;;;;;;;5.40;3.08;;;;;;;8.81;100.00;99631.47;6142843;23;20024;-61
2022/04/11 04:11:52;;;;;;;5.90;3.20;;;;;;;8.81;100.00;99615.63;6163313;23;20098;-63
2022/04/11 04:14:42;;;;;;;6.25;3.10;;;;;;;8.82;100.00;99601.50;6142773;23;20028;-62
2022/04/11 04:17:28;;;;;;;6.68;3.83;;;;;;;8.76;100.00;99607.78;6195034;23;20103;-62
2022/04/11 04:20:18;;;;;;;7.60;3.53;;;;;;;8.72;100.00;99592.88;6195256;23;20079;-63
2022/04/11 04:23:03;;;;;;;5.03;3.15;;;;;;;8.44;100.00;99566.88;6142521;23;20028;-61
2022/04/11 04:25:50;;;;;;;5.72;3.38;;;;;;;8.52;100.00;99570.28;6184184;23;20028;-63
2022/04/11 04:28:35;;;;;;;5.68;3.15;;;;;;;8.47;100.00;99570.31;6195119;23;20078;-62
2022/04/11 04:31:20;;;;;;;8.10;3.40;;;;;;;8.40;100.00;99573.97;6194000;23;20043;-63
2022/04/11 04:34:04;;;;;;;6.05;3.10;;;;;;;8.41;100.00;99561.63;6193744;23;20083;-62
2022/04/11 04:36:49;;;;;;;5.63;3.00;;;;;;;8.40;100.00;99566.06;6195210;23;20036;-61
2022/04/11 04:39:33;;;;;;;4.70;2.90;;;;;;;8.21;100.00;99545.19;6193805;23;20071;-61
2022/04/11 04:42:22;;;;;;;5.65;2.67;;;;;;;8.49;100.00;99565.91;6195109;23;20467;-62
2022/04/11 04:45:09;;;;;;;4.78;2.83;;;;;;;8.38;100.00;99528.19;6193832;23;20104;-62
2022/04/11 04:48:11;;;;;;;5.13;2.80;;;;;;;8.43;100.00;99536.91;6183410;23;20067;-63
2022/04/11 04:50:56;;;;;;;4.28;2.97;;;;;;;8.36;100.00;99516.81;6162664;23;20076;-63
2022/04/11 04:53:42;;;;;;;5.07;2.70;;;;;;;8.54;100.00;99542.03;6193466;23;20065;-63
2022/04/11 04:56:28;;;;;;;4.53;2.90;;;;;;;8.51;100.00;99532.38;6194713;23;20375;-61
2022/04/11 04:59:14;;;;;;;5.97;3.08;;;;;;;8.43;100.00;99529.00;6194325;23;20071;-63
2022/04/11 05:01:59;;;;;;;3.60;2.75;;;;;;;8.49;100.00;99534.19;6193866;23;20432;-61
2022/04/11 05:04:44;;;;;;;3.22;2.55;;;;;;;8.57;100.00;99528.78;6192986;23;20395;-62
2022/04/11 05:07:28;;;;;;;4.43;3.10;;;;;;;8.40;100.00;99500.00;6193542;23;20087;-63
2022/04/11 05:10:13;;;;;;;3.53;2.57;;;;;;;7.93;100.00;99423.25;6193786;23;20064;-72
2022/04/11 05:12:59;;;;;;;4.93;2.40;;;;;;;8.33;100.00;99468.41;6193915;23;20263;-62
2022/04/11 05:15:46;;;;;;;3.10;2.27;;;;;;;8.56;100.00;99501.50;6192968;23;20414;-63
2022/04/11 05:18:36;;;;;;;4.93;2.17;;;;;;;8.59;100.00;99500.59;6164144;23;20391;-63
2022/04/11 05:21:21;;;;;;;4.50;2.47;;;;;;;8.52;100.00;99491.88;6193328;23;20024;-64
2022/04/11 05:24:06;;;;;;;3.85;2.40;;;;;;;8.13;100.00;99434.38;6183208;23;20037;-62
2022/04/11 05:26:51;;;;;;;6.63;2.53;;;;;;;8.46;100.00;99485.78;6149295;23;20072;-63
2022/04/11 05:29:36;;;;;;;5.85;2.58;;;;;;;8.38;100.00;99475.38;6193581;23;20036;-65
2022/04/11 05:32:21;;;;;;;6.18;2.58;;;;;;;8.32;100.00;99474.59;6193674;23;20074;-61
2022/04/11 05:35:07;;;;;;;3.53;2.35;;;;;;;8.45;100.00;99470.84;6172394;23;20032;-63
2022/04/11 05:37:52;;;;;;;5.57;2.45;;;;;;;8.26;100.00;99419.22;6162192;23;20356;-63
2022/04/11 05:40:37;;;;;;;4.50;3.15;;;;;;;8.39;100.00;99432.19;6193279;23;20147;-63
2022/04/11 05:43:22;;;;;;;5.53;3.03;;;;;;;8.48;100.00;99454.97;6204426;23;20474;-62
2022/04/11 05:46:06;;;;;;;3.83;2.90;;;;;;;8.45;100.00;99455.00;6162431;23;20436;-64
2022/04/11 05:48:53;;;;;;;3.45;2.88;;;;;;;8.49;100.00;99446.13;6186097;23;20032;-63
2022/04/11 05:51:38;;;;;;;6.30;3.13;;;;;;;8.48;100.00;99396.84;6186740;23;20028;-62
2022/04/11 05:54:22;;;;;;;3.78;3.13;;;;;;;8.63;100.00;99407.13;6187892;23;20036;-64
2022/04/11 05:57:08;;;;;;;4.53;2.58;;;;;;;8.52;100.00;99385.31;6188210;23;20096;-63
2022/04/11 05:59:52;;;;;;;5.28;2.50;;;;;;;8.61;100.00;99407.16;6193483;23;20485;-63
2022/04/11 06:02:37;;;;;;;5.50;2.97;;;;;;;8.56;100.00;99393.16;6172089;23;20083;-63
2022/04/11 06:05:21;;;;;;;5.13;2.53;;;;;;;8.57;100.00;99400.19;6141397;23;20142;-62
2022/04/11 06:08:06;;;;;;;5.88;2.38;;;;;;;8.67;100.00;99395.59;6193175;23;20024;-64
2022/04/11 06:10:52;;;;;;;3.28;1.55;;;;;;;8.62;100.00;99410.66;6168860;23;20473;-64
2022/04/11 06:13:47;;;;;;;3.72;1.60;;;;;;;8.66;100.00;99413.22;6194528;23;20110;-62
2022/04/11 06:16:33;;;;;;;4.35;1.60;;;;;;;8.58;100.00;99414.25;6193370;23;20131;-62
2022/04/11 06:19:17;;;;;;;1.88;1.35;;;;;;;8.54;100.00;99410.81;6193275;23;20024;-63
2022/04/11 06:22:02;;;;;;;1.60;1.00;;;;;;;8.52;100.00;99407.34;6141966;23;20393;-63
2022/04/11 06:24:48;;;;;;;1.67;1.10;;;;;;;8.67;100.00;99396.47;6192537;23;20024;-62
2022/04/11 06:27:36;;;;;;;2.42;1.23;;;;;;;8.58;100.00;99391.34;6141311;23;20486;-63
2022/04/11 06:30:20;;;;;;;2.03;1.00;;;;;;;8.54;100.00;99394.06;6192927;23;20042;-63
2022/04/11 06:33:06;;;;;;;2.33;1.38;;;;;;;8.60;100.00;99376.34;6184431;23;20473;-62
2022/04/11 06:35:50;;;;;;;2.38;1.23;;;;;;;8.47;100.00;99347.53;6161684;23;20091;-62
2022/04/11 06:38:35;;;;;;;1.92;0.95;;;;;;;8.52;100.00;99372.97;6181915;23;20075;-63
2022/04/11 06:41:21;;;;;;;3.60;1.27;;;;;;;8.68;100.00;99384.13;6181916;23;20375;-63
2022/04/11 06:44:06;;;;;;;2.55;1.10;;;;;;;8.53;100.00;99361.50;6192125;23;20494;-63
2022/04/11 06:46:58;;;;;;;2.75;1.55;;;;;;;8.46;100.00;99395.97;6192136;23;20061;-63
2022/04/11 06:49:44;;;;;;;4.38;1.25;;;;;;;8.60;100.00;99426.56;6181685;23;20044;-63
2022/04/11 06:52:28;;;;;;;3.22;1.35;;;;;;;8.41;100.00;99405.75;6161002;23;20459;-62
2022/04/11 06:55:13;;;;;;;3.35;1.40;;;;;;;8.40;100.00;99448.94;6197623;23;20111;-64
2022/04/11 06:57:57;;;;;;;3.00;1.45;;;;;;;8.45;100.00;99458.53;6188391;23;20099;-63
2022/04/11 07:00:43;;;;;;;7.93;1.38;;;;;;;8.43;100.00;99433.03;6195232;23;20410;-62
2022/04/11 07:03:32;;;;;;;4.13;1.50;;;;;;;8.54;100.00;99453.09;6170434;23;20513;-63
2022/04/11 07:06:16;;;;;;;3.10;1.50;;;;;;;8.46;100.00;99449.69;6192094;23;20075;-63
2022/04/11 07:09:01;;;;;;;5.35;1.75;;;;;;;8.50;100.00;99437.28;6193827;23;20028;-63
2022/04/11 07:11:45;;;;;;;4.15;1.92;;;;;;;8.55;100.00;99431.03;6194028;23;20075;-63
2022/04/11 07:14:29;;;;;;;4.68;1.90;;;;;;;8.66;100.00;99442.28;6182998;23;20101;-63
2022/04/11 07:17:14;;;;;;;5.50;1.90;;;;;;;8.76;100.00;99435.97;6213617;23;20024;-62
2022/04/11 07:19:58;;;;;;;6.22;1.83;;;;;;;8.76;100.00;99448.28;6193934;23;20140;-63
2022/04/11 07:22:43;;;;;;;3.20;1.70;;;;;;;8.73;100.00;99467.72;6183116;23;20113;-63
2022/04/11 07:25:28;;;;;;;2.95;1.73;;;;;;;8.51;100.00;99483.97;6183049;23;20336;-62
2022/04/11 07:28:13;;;;;;;2.33;1.50;;;;;;;7.99;100.00;99469.81;6161691;23;20028;-63
2022/04/11 07:30:57;;;;;;;2.50;1.50;;;;;;;7.98;100.00;99520.84;6194085;23;20092;-63
2022/04/11 07:33:42;;;;;;;6.15;1.90;;;;;;;7.78;100.00;99514.94;6192645;23;20079;-63
2022/04/11 07:36:30;;;;;;;5.30;2.08;;;;;;;7.93;100.00;99510.34;6193771;23;20049;-63
2022/04/11 07:39:15;;;;;;;3.90;1.73;;;;;;;7.98;100.00;99470.66;6192192;23;20032;-63
2022/04/11 07:42:00;;;;;;;7.75;2.28;;;;;;;7.90;100.00;99438.22;6185274;23;20027;-63
2022/04/11 07:44:45;;;;;;;4.00;2.03;;;;;;;8.27;100.00;99442.13;6173023;23;20044;-64
2022/04/11 07:47:29;;;;;;;3.33;2.22;;;;;;;8.45;100.00;99447.06;6162241;23;20056;-62
2022/04/11 07:50:14;;;;;;;4.20;2.47;;;;;;;8.46;100.00;99449.69;6195261;23;20063;-62
2022/04/11 07:52:59;;;;;;;8.15;2.75;;;;;;;8.49;100.00;99417.06;6173485;23;20114;-61
2022/04/11 07:55:44;;;;;;;5.38;2.72;;;;;;;8.61;100.00;99459.13;6184692;23;20394;-63
2022/04/11 07:58:28;;;;;;;7.28;3.17;;;;;;;8.34;100.00;99418.19;6194464;23;20039;-63
2022/04/11 08:01:16;;;;;;;5.57;3.20;;;;;;;8.62;100.00;99429.16;6184732;23;20453;-61
2022/04/11 08:04:01;;;;;;;7.10;3.10;;;;;;;8.70;100.00;99430.78;6184414;23;20024;-61
2022/04/11 08:06:45;;;;;;;5.05;2.53;;;;;;;8.83;100.00;99421.72;6196264;23;20031;-60
2022/04/11 08:09:30;;;;;;;6.32;4.00;;;;;;;8.98;100.00;99425.88;6185544;23;20163;-65
2022/04/11 08:12:17;;;;;;;6.45;3.90;;;;;;;8.91;100.00;99430.38;6195790;23;20470;-61
2022/04/11 08:15:02;;;;;;;7.05;2.95;;;;;;;8.93;100.00;99418.00;6195757;23;20155;-61
2022/04/11 08:17:47;;;;;;;6.47;3.72;;;;;;;8.86;100.00;99391.69;6196430;23;20031;-61
2022/04/11 08:20:32;;;;;;;7.13;4.20;;;;;;;9.05;100.00;99398.38;6185941;23;20348;-60
2022/04/11 08:23:17;;;;;;;8.35;3.47;;;;;;;8.79;100.00;99368.94;6163642;23;20478;-62
2022/04/11 08:26:02;;;;;;;5.40;3.38;;;;;;;8.81;100.00;99375.94;6195720;23;20024;-59
2022/04/11 08:28:46;;;;;;;7.38;3.55;;;;;;;8.97;100.00;99403.81;6194290;23;20063;-61
2022/04/11 08:31:31;;;;;;;5.95;3.58;;;;;;;9.02;100.00;99416.97;6191153;23;20028;-68
2022/04/11 08:34:15;;;;;;;7.28;3.70;;;;;;;9.11;100.00;99419.44;6183473;23;20116;-61
2022/04/11 08:36:59;;;;;;;4.70;3.13;;;;;;;9.15;100.00;99398.16;6192371;23;20359;-62
2022/04/11 08:39:44;;;;;;;7.47;3.38;;;;;;;9.21;100.00;99387.47;6184319;23;20028;-62
2022/04/11 08:42:29;;;;;;;7.77;3.40;;;;;;;9.21;100.00;99391.88;6214023;23;20044;-62
2022/04/11 08:45:16;;;;;;;9.63;3.53;;;;;;;9.19;100.00;99377.81;6194402;23;20578;-61
2022/04/11 08:48:01;;;;;;;5.68;2.95;;;;;;;9.21;100.00;99389.22;6172069;23;20075;-61
2022/04/11 08:50:46;;;;;;;5.30;3.13;;;;;;;8.96;100.00;99373.00;6183365;23;20032;-62
2022/04/11 08:53:32;;;;;;;5.90;2.95;;;;;;;9.16;100.00;99392.00;6193763;23;20027;-60
2022/04/11 08:56:16;;;;;;;6.90;3.05;;;;;;;9.04;100.00;99386.94;6193882;23;20392;-64
2022/04/11 08:59:02;;;;;;;5.82;3.40;;;;;;;9.12;100.00;99379.72;6182331;23;20490;-61
2022/04/11 09:01:47;;;;;;;5.43;3.30;;;;;;;9.16;100.00;99368.19;6193361;23;20107;-64
2022/04/11 09:04:31;;;;;;;3.30;2.53;;;;;;;9.02;100.00;99375.50;6192621;23;20072;-62
2022/04/11 09:07:16;;;;;;;5.60;3.10;;;;;;;8.90;100.00;99365.19;6184237;23;20028;-64
2022/04/11 09:10:01;;;;;;;7.47;2.97;;;;;;;9.12;100.00;99398.25;6163548;23;20083;-62
2022/04/11 09:12:53;;;;;;;5.55;2.70;;;;;;;9.18;100.00;99394.59;6184267;23;20051;-63
2022/04/11 09:15:41;;;;;;;6.25;2.90;;;;;;;9.18;100.00;99379.59;6192199;23;20051;-61
2022/04/11 09:18:45;;;;;;;6.93;3.33;;;;;;;9.25;100.00;99399.72;6184126;23;20053;-62
2022/04/11 09:21:44;;;;;;;6.97;2.83;;;;;;;9.05;100.00;99351.66;6173461;23;20028;-62
2022/04/11 09:24:30;;;;;;;4.65;2.65;;;;;;;8.97;100.00;99342.13;6194029;23;20044;-63
2022/04/11 09:27:23;;;;;;;5.47;2.55;;;;;;;8.97;100.00;99373.84;6172541;23;20067;-62
2022/04/11 09:30:25;;;;;;;5.93;3.03;;;;;;;8.98;100.00;99357.13;6194869;23;20489;-62
2022/04/11 09:33:11;;;;;;;5.75;2.60;;;;;;;9.18;100.00;99365.50;6194227;23;20075;-61
2022/04/11 09:35:55;;;;;;;7.85;2.58;;;;;;;9.26;100.00;99388.22;6194628;23;20031;-62
2022/04/11 09:38:39;;;;;;;5.50;2.80;;;;;;;9.29;100.00;99380.25;6185164;23;20032;-63
2022/04/11 09:41:34;;;;;;;5.90;2.75;;;;;;;9.37;100.00;99402.13;6194497;23;20047;-62
2022/04/11 09:44:25;;;;;;;7.73;3.30;;;;;;;9.32;100.00;99408.41;6171903;23;20028;-62
2022/04/11 09:47:09;;;;;;;5.28;3.00;;;;;;;9.02;100.00;99382.59;6193775;23;20087;-61
2022/04/11 09:49:53;;;;;;;6.63;2.90;;;;;;;9.03;100.00;99393.09;6184954;23;20031;-61
2022/04/11 09:52:38;;;;;;;5.38;3.05;;;;;;;9.09;100.00;99416.81;6193937;23;20032;-61
2022/04/11 09:55:23;;;;;;;4.70;2.55;;;;;;;9.04;100.00;99450.41;6193900;23;20028;-63
2022/04/11 09:58:08;;;;;;;5.03;3.05;;;;;;;8.72;100.00;99413.13;6172373;23;20036;-63
2022/04/11 10:00:54;;;;;;;6.68;3.17;;;;;;;8.99;100.00;99452.25;6194365;23;20028;-60
2022/04/11 10:03:40;;;;;;;5.82;3.13;;;;;;;9.04;100.00;99457.47;6184290;23;20027;-61
2022/04/11 10:06:24;;;;;;;9.85;5.53;;;;;;;9.05;100.00;99461.84;6183401;23;20024;-61
2022/04/11 10:09:09;;;;;;;6.13;2.50;;;;;;;9.00;100.00;99480.47;6182658;23;20027;-62
2022/04/11 10:11:55;;;;;;;4.63;2.42;;;;;;;9.04;100.00;99474.22;6182824;23;20032;-61
2022/04/11 10:14:42;;;;;;;6.38;2.78;;;;;;;8.83;100.00;99442.00;6194719;23;20028;-62
2022/04/11 10:17:27;;;;;;;5.25;2.90;;;;;;;8.94;100.00;99435.59;6194217;23;20036;-61
2022/04/11 10:20:13;;;;;;;7.47;2.70;;;;;;;8.81;100.00;99404.13;6193023;23;20076;-60
2022/04/11 10:23:18;;;;;;;4.75;2.90;;;;;;;8.94;100.00;99395.06;6183743;23;20043;-63
2022/04/11 10:26:17;;;;;;;4.53;2.72;;;;;;;9.00;100.00;99376.44;6183011;23;20043;-63
2022/04/11 10:29:02;;;;;;;8.32;3.13;;;;;;;9.17;100.00;99400.78;6194267;23;20095;-64
2022/04/11 10:32:14;;;;;;;7.97;2.65;;;;;;;9.09;100.00;99390.34;6192206;23;20055;-62
2022/04/11 10:35:02;;;;;;;6.03;2.58;;;;;;;9.16;100.00;99407.84;6184138;23;20083;-65
2022/04/11 10:37:51;;;;;;;5.18;2.47;;;;;;;9.25;100.00;99391.78;6194547;23;20035;-62
2022/04/11 10:40:37;;;;;;;6.10;2.85;;;;;;;9.34;100.00;99406.59;6193348;23;20028;-64
2022/04/11 10:43:22;;;;;;;4.85;2.63;;;;;;;9.33;100.00;99423.38;6181689;23;20090;-64
2022/04/11 10:46:07;;;;;;;4.97;2.60;;;;;;;9.31;100.00;99423.38;6192129;23;20043;-63
2022/04/11 10:48:59;;;;;;;4.60;2.53;;;;;;;9.30;100.00;99420.81;6182372;23;20095;-63
2022/04/11 10:51:43;;;;;;;6.05;2.80;;;;;;;9.13;100.00;99389.41;6193034;23;20059;-64
2022/04/11 10:54:28;;;;;;;7.07;2.70;;;;;;;9.36;100.00;99402.16;6193070;23;20071;-63
2022/04/11 10:57:33;;;;;;;5.97;2.60;;;;;;;9.46;100.00;99409.84;6180627;23;20020;-63
2022/04/11 11:00:22;;;;;;;6.57;3.05;;;;;;;9.29;100.00;99432.25;6192997;23;20067;-64
2022/04/11 11:03:10;;;;;;;6.63;2.97;;;;;;;9.15;100.00;99403.44;6193420;23;20015;-64
2022/04/11 11:06:13;;;;;;;9.93;3.20;;;;;;;9.29;100.00;99409.34;6193446;23;20079;-63
2022/04/11 11:09:15;;;;;;;6.85;2.72;;;;;;;9.43;100.00;99396.66;6193779;23;20031;-63
2022/04/11 11:12:19;;;;;;;5.35;3.10;;;;;;;9.19;100.00;99370.75;6161456;23;20032;-63
2022/04/11 11:15:29;;;;;;;7.18;3.30;;;;;;;9.46;100.00;99401.06;6172641;23;20495;-62
2022/04/11 11:18:13;;;;;;;7.07;3.22;;;;;;;9.49;100.00;99400.97;6194986;23;20090;-64
2022/04/11 11:20:58;;;;;;;4.63;3.22;;;;;;;9.46;100.00;99369.31;6186012;23;20036;-61
2022/04/11 11:24:12;;;;;;;8.40;3.55;;;;;;;9.48;100.00;99394.81;6173564;23;20332;-64
2022/04/11 11:27:00;;;;;;;8.20;3.22;;;;;;;9.41;100.00;99385.28;6185743;23;20035;-62
2022/04/11 11:29:44;;;;;;;9.05;3.20;;;;;;;9.54;100.00;99399.13;6195724;23;20097;-62
2022/04/11 11:32:30;;;;;;;7.55;3.55;;;;;;;9.61;100.00;99406.00;6184073;23;20019;-63
2022/04/11 11:35:15;;;;;;;8.52;3.47;;;;;;;9.59;100.00;99407.81;6173223;23;20027;-66
2022/04/11 11:38:06;;;;;;;6.63;3.35;;;;;;;9.59;100.00;99410.47;6195121;23;20061;-63
2022/04/11 11:41:03;;;;;;;9.95;4.40;;;;;;;9.66;100.00;99403.25;6163006;23;20023;-61
2022/04/11 11:43:48;;;;;;;7.13;3.45;;;;;;;9.71;100.00;99402.25;6187464;23;20040;-65
2022/04/11 11:46:53;;;;;;;5.82;3.30;;;;;;;9.74;100.00;99388.06;6195707;23;20024;-62
2022/04/11 11:49:40;;;;;;;7.45;3.55;;;;;;;9.73;100.00;99379.25;6195841;23;20035;-61
2022/04/11 11:52:24;;;;;;;8.05;3.95;;;;;;;9.83;100.00;99407.28;6196063;23;20028;-63
2022/04/11 11:55:08;;;;;;;6.50;3.53;;;;;;;9.71;100.00;99402.25;6184479;23;20016;-64
2022/04/11 11:58:06;;;;;;;7.40;3.70;;;;;;;9.74;100.00;99410.13;6195742;23;20093;-63
2022/04/11 12:00:50;;;;;;;7.93;4.03;;;;;;;9.40;100.00;99387.94;6195637;23;20024;-63
2022/04/11 12:06:38;;;;;;;8.85;3.95;;;;;;;9.47;100.00;99401.00;6184943;23;20090;-62
2022/04/11 12:09:33;;;;;;;5.85;3.42;;;;;;;9.63;100.00;99398.91;6183896;23;20067;-64
2022/04/11 12:12:21;;;;;;;8.23;3.75;;;;;;;9.37;100.00;99373.00;6195232;23;20028;-60
2022/04/11 12:15:10;;;;;;;8.13;3.53;;;;;;;9.63;100.00;99414.78;6194867;23;20104;-63
2022/04/11 12:18:02;;;;;;;7.90;4.00;;;;;;;9.49;100.00;99407.16;6194595;23;20096;-63
2022/04/11 12:20:47;;;;;;;8.32;3.80;;;;;;;9.36;100.00;99410.97;6195280;23;20407;-65
2022/04/11 12:23:47;;;;;;;6.07;3.35;;;;;;;9.47;100.00;99411.59;6173044;23;20160;-63
2022/04/11 12:26:35;;;;;;;7.05;3.80;;;;;;;9.51;100.00;99418.56;6194056;23;20016;-63
2022/04/11 12:29:19;;;;;;;8.50;4.47;;;;;;;9.57;100.00;99410.50;6195154;23;20068;-63
2022/04/11 12:32:13;;;;;;;7.63;3.85;;;;;;;9.52;100.00;99415.03;6195036;23;20024;-65
2022/04/11 12:35:13;;;;;;;7.32;3.78;;;;;;;9.61;100.00;99415.72;6199667;23;20024;-63
2022/04/11 12:38:00;;;;;;;8.68;4.75;;;;;;;9.33;100.00;99436.59;6200889;23;20028;-63
2022/04/11 12:40:46;;;;;;;8.02;3.95;;;;;;;9.38;100.00;99437.41;6189631;23;20115;-62
2022/04/11 12:43:30;;;;;;;6.80;3.83;;;;;;;9.31;100.00;99447.19;6196557;23;20122;-60
2022/04/11 12:46:23;;;;;;;9.48;4.43;;;;;;;9.22;100.00;99451.84;6195506;23;20369;-63
2022/04/11 12:49:09;;;;;;;9.05;4.68;;;;;;;9.24;100.00;99447.38;6185215;23;20027;-62
2022/04/11 12:51:59;;;;;;;8.63;3.95;;;;;;;9.34;100.00;99447.16;6194818;23;20153;-62
2022/04/11 12:54:45;;;;;;;10.25;4.85;;;;;;;9.27;100.00;99463.19;6184962;23;20016;-63
2022/04/11 12:57:32;;;;;;;14.27;4.70;;;;;;;9.22;100.00;99462.41;6196213;23;20304;-61
2022/04/11 13:00:21;;;;;;;9.40;4.45;;;;;;;9.13;100.00;99465.22;6195032;23;20039;-63
2022/04/11 13:03:06;;;;;;;12.10;4.53;;;;;;;9.02;100.00;99473.34;6192846;23;20024;-62
2022/04/11 13:05:51;;;;;;;9.38;5.03;;;;;;;9.02;100.00;99491.00;6184953;23;20024;-64
2022/04/11 13:08:35;;;;;;;11.38;5.20;;;;;;;8.91;100.00;99485.88;6185152;23;20124;-63